sensor_id;sensor_type;location;lat;lon;timestamp;pressure;altitude;pressure_sealevel;temperature;humidity
10097;BME280;5087;42.662;23.466;2023-05-25T00:00:35;95343.84;;;12.88;100.00
10097;BME280;5087;42.662;23.466;2023-05-25T00:03:02;95348.72;;;12.82;100.00
10097;BME280;5087;42.662;23.466;2023-05-25T00:05:29;95336.88;;;12.78;100.00
10097;BME280;5087;42.662;23.466;2023-05-25T00:07:56;95345.91;;;12.91;100.00
10097;BME280;5087;42.662;23.466;2023-05-25T00:10:24;95333.66;;;12.76;100.00
10097;BME280;5087;42.662;23.466;2023-05-25T00:12:52;95344.53;;;12.85;100.00
10097;BME280;5087;42.662;23.466;2023-05-25T00:15:23;95335.13;;;12.73;100.00
10097;BME280;5087;42.662;23.466;2023-05-25T00:17:51;95355.22;;;12.90;100.00
10097;BME280;5087;42.662;23.466;2023-05-25T00:20:19;95338.00;;;12.77;100.00
10097;BME280;5087;42.662;23.466;2023-05-25T00:22:47;95351.88;;;12.84;100.00
10097;BME280;5087;42.662;23.466;2023-05-25T00:25:14;95353.81;;;12.83;100.00
10097;BME280;5087;42.662;23.466;2023-05-25T00:27:42;95361.19;;;13.04;100.00
10097;BME280;5087;42.662;23.466;2023-05-25T00:30:10;95359.28;;;13.05;100.00
10097;BME280;5087;42.662;23.466;2023-05-25T00:32:42;95361.31;;;13.08;100.00
10097;BME280;5087;42.662;23.466;2023-05-25T00:35:10;95351.03;;;12.92;100.00
10097;BME280;5087;42.662;23.466;2023-05-25T00:37:38;95365.47;;;13.14;100.00
10097;BME280;5087;42.662;23.466;2023-05-25T00:40:07;95354.09;;;13.12;100.00
10097;BME280;5087;42.662;23.466;2023-05-25T00:42:38;95360.06;;;12.84;100.00
10097;BME280;5087;42.662;23.466;2023-05-25T00:45:06;95356.91;;;12.52;100.00
10097;BME280;5087;42.662;23.466;2023-05-25T00:47:34;95359.53;;;12.40;100.00
10097;BME280;5087;42.662;23.466;2023-05-25T00:50:07;95356.72;;;12.27;100.00
10097;BME280;5087;42.662;23.466;2023-05-25T00:52:35;95351.13;;;12.24;100.00
10097;BME280;5087;42.662;23.466;2023-05-25T00:55:07;95350.59;;;12.30;100.00
10097;BME280;5087;42.662;23.466;2023-05-25T00:57:36;95357.66;;;12.31;100.00
10097;BME280;5087;42.662;23.466;2023-05-25T01:00:08;95365.44;;;12.42;100.00
10097;BME280;5087;42.662;23.466;2023-05-25T01:02:37;95359.16;;;12.50;100.00
10097;BME280;5087;42.662;23.466;2023-05-25T01:05:09;95367.03;;;12.73;100.00
10097;BME280;5087;42.662;23.466;2023-05-25T01:07:40;95363.78;;;12.79;100.00
10097;BME280;5087;42.662;23.466;2023-05-25T01:10:10;95360.66;;;12.90;100.00
10097;BME280;5087;42.662;23.466;2023-05-25T01:12:41;95357.59;;;12.91;100.00
10097;BME280;5087;42.662;23.466;2023-05-25T01:15:11;95371.03;;;12.96;100.00
10097;BME280;5087;42.662;23.466;2023-05-25T01:17:40;95365.59;;;12.96;100.00
10097;BME280;5087;42.662;23.466;2023-05-25T01:20:11;95363.50;;;12.72;100.00
10097;BME280;5087;42.662;23.466;2023-05-25T01:22:44;95368.81;;;12.69;100.00
10097;BME280;5087;42.662;23.466;2023-05-25T01:25:20;95370.69;;;12.47;100.00
10097;BME280;5087;42.662;23.466;2023-05-25T01:27:52;95359.53;;;12.40;100.00
10097;BME280;5087;42.662;23.466;2023-05-25T01:30:25;95352.03;;;12.37;100.00
10097;BME280;5087;42.662;23.466;2023-05-25T01:32:53;95368.03;;;12.38;100.00
10097;BME280;5087;42.662;23.466;2023-05-25T01:35:21;95364.59;;;12.50;100.00
10097;BME280;5087;42.662;23.466;2023-05-25T01:37:51;95367.63;;;12.27;100.00
10097;BME280;5087;42.662;23.466;2023-05-25T01:40:18;95371.03;;;12.15;100.00
10097;BME280;5087;42.662;23.466;2023-05-25T01:42:45;95366.28;;;12.03;100.00
10097;BME280;5087;42.662;23.466;2023-05-25T01:45:13;95375.13;;;11.83;100.00
10097;BME280;5087;42.662;23.466;2023-05-25T01:47:47;95352.25;;;11.75;100.00
10097;BME280;5087;42.662;23.466;2023-05-25T01:50:22;95352.59;;;11.74;100.00
10097;BME280;5087;42.662;23.466;2023-05-25T01:53:02;95356.75;;;11.71;100.00
10097;BME280;5087;42.662;23.466;2023-05-25T01:55:35;95362.50;;;11.69;100.00
10097;BME280;5087;42.662;23.466;2023-05-25T01:58:06;95359.78;;;11.69;100.00
10097;BME280;5087;42.662;23.466;2023-05-25T02:00:34;95371.31;;;11.66;100.00
10097;BME280;5087;42.662;23.466;2023-05-25T02:03:03;95371.16;;;11.63;100.00
10097;BME280;5087;42.662;23.466;2023-05-25T02:05:30;95359.69;;;11.48;100.00
10097;BME280;5087;42.662;23.466;2023-05-25T02:07:59;95379.00;;;11.47;100.00
10097;BME280;5087;42.662;23.466;2023-05-25T02:10:29;95362.25;;;11.27;100.00
10097;BME280;5087;42.662;23.466;2023-05-25T02:12:56;95377.09;;;11.38;100.00
10097;BME280;5087;42.662;23.466;2023-05-25T02:15:29;95377.75;;;11.35;100.00
10097;BME280;5087;42.662;23.466;2023-05-25T02:17:57;95372.97;;;11.41;100.00
10097;BME280;5087;42.662;23.466;2023-05-25T02:20:32;95379.00;;;11.64;100.00
10097;BME280;5087;42.662;23.466;2023-05-25T02:23:01;95379.47;;;11.57;100.00
10097;BME280;5087;42.662;23.466;2023-05-25T02:25:33;95378.41;;;11.41;100.00
10097;BME280;5087;42.662;23.466;2023-05-25T02:28:01;95382.25;;;11.22;100.00
10097;BME280;5087;42.662;23.466;2023-05-25T02:30:28;95386.06;;;11.04;100.00
10097;BME280;5087;42.662;23.466;2023-05-25T02:33:07;95392.78;;;10.89;100.00
10097;BME280;5087;42.662;23.466;2023-05-25T02:35:36;95393.06;;;10.79;100.00
10097;BME280;5087;42.662;23.466;2023-05-25T02:38:10;95390.53;;;10.73;100.00
10097;BME280;5087;42.662;23.466;2023-05-25T02:40:37;95399.78;;;10.81;100.00
10097;BME280;5087;42.662;23.466;2023-05-25T02:43:05;95411.63;;;10.76;100.00
10097;BME280;5087;42.662;23.466;2023-05-25T02:45:37;95383.16;;;10.65;100.00
10097;BME280;5087;42.662;23.466;2023-05-25T02:48:04;95412.56;;;10.81;100.00
10097;BME280;5087;42.662;23.466;2023-05-25T02:50:35;95418.63;;;10.77;100.00
10097;BME280;5087;42.662;23.466;2023-05-25T02:53:13;95425.66;;;10.79;100.00
10097;BME280;5087;42.662;23.466;2023-05-25T02:55:43;95425.22;;;10.85;100.00
10097;BME280;5087;42.662;23.466;2023-05-25T02:58:16;95411.78;;;10.80;100.00
10097;BME280;5087;42.662;23.466;2023-05-25T03:01:07;95426.50;;;11.14;100.00
10097;BME280;5087;42.662;23.466;2023-05-25T03:03:38;95418.19;;;10.93;100.00
10097;BME280;5087;42.662;23.466;2023-05-25T03:06:10;95421.75;;;11.37;100.00
10097;BME280;5087;42.662;23.466;2023-05-25T03:08:40;95413.25;;;11.30;100.00
10097;BME280;5087;42.662;23.466;2023-05-25T03:11:07;95426.19;;;11.51;100.00
10097;BME280;5087;42.662;23.466;2023-05-25T03:13:42;95424.25;;;11.51;100.00
10097;BME280;5087;42.662;23.466;2023-05-25T03:16:23;95431.78;;;11.46;100.00
10097;BME280;5087;42.662;23.466;2023-05-25T03:18:56;95414.84;;;11.31;100.00
10097;BME280;5087;42.662;23.466;2023-05-25T03:21:23;95428.44;;;11.31;100.00
10097;BME280;5087;42.662;23.466;2023-05-25T03:24:15;95433.41;;;11.29;100.00
10097;BME280;5087;42.662;23.466;2023-05-25T03:26:43;95420.59;;;11.38;100.00
10097;BME280;5087;42.662;23.466;2023-05-25T03:29:21;95431.13;;;11.57;100.00
10097;BME280;5087;42.662;23.466;2023-05-25T03:32:19;95433.69;;;11.71;100.00
10097;BME280;5087;42.662;23.466;2023-05-25T03:34:54;95430.66;;;11.64;100.00
10097;BME280;5087;42.662;23.466;2023-05-25T03:40:18;95410.88;;;11.37;100.00
10097;BME280;5087;42.662;23.466;2023-05-25T03:42:46;95443.75;;;11.62;100.00
10097;BME280;5087;42.662;23.466;2023-05-25T03:45:13;95448.22;;;11.84;100.00
10097;BME280;5087;42.662;23.466;2023-05-25T03:47:42;95439.25;;;11.93;100.00
10097;BME280;5087;42.662;23.466;2023-05-25T03:50:26;95431.09;;;12.01;100.00
10097;BME280;5087;42.662;23.466;2023-05-25T03:53:12;95418.16;;;11.81;100.00
10097;BME280;5087;42.662;23.466;2023-05-25T03:55:43;95452.53;;;11.77;100.00
10097;BME280;5087;42.662;23.466;2023-05-25T03:58:14;95448.56;;;11.74;100.00
10097;BME280;5087;42.662;23.466;2023-05-25T04:01:04;95415.75;;;11.70;100.00
10097;BME280;5087;42.662;23.466;2023-05-25T04:03:35;95455.09;;;11.99;100.00
10097;BME280;5087;42.662;23.466;2023-05-25T04:06:06;95447.72;;;12.09;100.00
10097;BME280;5087;42.662;23.466;2023-05-25T04:08:41;95461.34;;;12.00;100.00
10097;BME280;5087;42.662;23.466;2023-05-25T04:11:32;95449.00;;;12.02;100.00
10097;BME280;5087;42.662;23.466;2023-05-25T04:13:59;95454.31;;;11.99;100.00
10097;BME280;5087;42.662;23.466;2023-05-25T04:16:30;95454.59;;;12.06;100.00
10097;BME280;5087;42.662;23.466;2023-05-25T04:19:03;95449.00;;;11.85;100.00
10097;BME280;5087;42.662;23.466;2023-05-25T04:21:34;95443.78;;;11.71;100.00
10097;BME280;5087;42.662;23.466;2023-05-25T04:24:03;95461.19;;;11.79;100.00
10097;BME280;5087;42.662;23.466;2023-05-25T04:26:34;95468.22;;;11.80;100.00
10097;BME280;5087;42.662;23.466;2023-05-25T04:29:02;95468.34;;;11.92;100.00
10097;BME280;5087;42.662;23.466;2023-05-25T04:31:59;95466.31;;;11.89;100.00
10097;BME280;5087;42.662;23.466;2023-05-25T04:34:48;95466.78;;;12.00;100.00
10097;BME280;5087;42.662;23.466;2023-05-25T04:37:20;95455.25;;;12.12;100.00
10097;BME280;5087;42.662;23.466;2023-05-25T04:40:16;95460.59;;;12.38;100.00
10097;BME280;5087;42.662;23.466;2023-05-25T04:42:48;95461.81;;;12.88;100.00
10097;BME280;5087;42.662;23.466;2023-05-25T04:45:20;95465.84;;;13.12;100.00
10097;BME280;5087;42.662;23.466;2023-05-25T04:47:50;95467.88;;;13.15;100.00
10097;BME280;5087;42.662;23.466;2023-05-25T04:50:21;95474.03;;;13.33;100.00
10097;BME280;5087;42.662;23.466;2023-05-25T04:52:52;95463.34;;;13.49;100.00
10097;BME280;5087;42.662;23.466;2023-05-25T04:55:20;95464.25;;;14.08;100.00
10097;BME280;5087;42.662;23.466;2023-05-25T05:00:48;95437.78;;;14.21;100.00
10097;BME280;5087;42.662;23.466;2023-05-25T05:03:15;95417.84;;;13.96;100.00
10097;BME280;5087;42.662;23.466;2023-05-25T05:05:44;95435.34;;;13.95;100.00
10097;BME280;5087;42.662;23.466;2023-05-25T05:08:17;95428.97;;;13.90;100.00
10097;BME280;5087;42.662;23.466;2023-05-25T05:10:52;95443.84;;;14.27;100.00
10097;BME280;5087;42.662;23.466;2023-05-25T05:13:20;95453.44;;;14.70;100.00
10097;BME280;5087;42.662;23.466;2023-05-25T05:15:54;95445.81;;;14.88;100.00
10097;BME280;5087;42.662;23.466;2023-05-25T05:18:23;95444.97;;;15.25;100.00
10097;BME280;5087;42.662;23.466;2023-05-25T05:20:54;95434.94;;;15.29;100.00
10097;BME280;5087;42.662;23.466;2023-05-25T05:23:22;95457.91;;;15.52;100.00
10097;BME280;5087;42.662;23.466;2023-05-25T05:25:50;95458.91;;;15.19;100.00
10097;BME280;5087;42.662;23.466;2023-05-25T05:28:18;95452.66;;;14.69;100.00
10097;BME280;5087;42.662;23.466;2023-05-25T05:33:36;95451.59;;;14.62;100.00
10097;BME280;5087;42.662;23.466;2023-05-25T05:36:05;95469.63;;;15.12;100.00
10097;BME280;5087;42.662;23.466;2023-05-25T05:38:41;95475.41;;;15.23;100.00
10097;BME280;5087;42.662;23.466;2023-05-25T05:41:12;95476.56;;;15.63;100.00
10097;BME280;5087;42.662;23.466;2023-05-25T05:43:47;95469.78;;;15.44;100.00
10097;BME280;5087;42.662;23.466;2023-05-25T05:46:14;95474.28;;;15.65;100.00
10097;BME280;5087;42.662;23.466;2023-05-25T05:49:08;95431.81;;;15.55;100.00
10097;BME280;5087;42.662;23.466;2023-05-25T05:51:39;95463.75;;;15.79;100.00
10097;BME280;5087;42.662;23.466;2023-05-25T05:54:09;95474.06;;;15.17;100.00
10097;BME280;5087;42.662;23.466;2023-05-25T05:56:37;95474.41;;;15.56;100.00
10097;BME280;5087;42.662;23.466;2023-05-25T05:59:34;95442.56;;;16.05;100.00
10097;BME280;5087;42.662;23.466;2023-05-25T06:02:02;95463.50;;;15.97;100.00
10097;BME280;5087;42.662;23.466;2023-05-25T06:04:39;95475.38;;;16.33;100.00
10097;BME280;5087;42.662;23.466;2023-05-25T06:07:07;95461.97;;;16.28;100.00
10097;BME280;5087;42.662;23.466;2023-05-25T06:09:34;95471.63;;;16.70;100.00
10097;BME280;5087;42.662;23.466;2023-05-25T06:12:03;95467.28;;;17.36;100.00
10097;BME280;5087;42.662;23.466;2023-05-25T06:14:30;95469.06;;;17.64;100.00
10097;BME280;5087;42.662;23.466;2023-05-25T06:17:01;95470.53;;;17.78;100.00
10097;BME280;5087;42.662;23.466;2023-05-25T06:19:30;95464.84;;;18.29;100.00
10097;BME280;5087;42.662;23.466;2023-05-25T06:22:07;95456.78;;;18.60;100.00
10097;BME280;5087;42.662;23.466;2023-05-25T06:24:45;95460.19;;;18.76;100.00
10097;BME280;5087;42.662;23.466;2023-05-25T06:27:18;95459.44;;;19.03;100.00
10097;BME280;5087;42.662;23.466;2023-05-25T06:29:48;95459.44;;;19.03;100.00
10097;BME280;5087;42.662;23.466;2023-05-25T06:32:20;95465.41;;;19.08;100.00
10097;BME280;5087;42.662;23.466;2023-05-25T06:34:50;95468.88;;;19.02;100.00
10097;BME280;5087;42.662;23.466;2023-05-25T06:37:20;95463.78;;;18.34;100.00
10097;BME280;5087;42.662;23.466;2023-05-25T06:39:47;95462.16;;;18.53;100.00
10097;BME280;5087;42.662;23.466;2023-05-25T06:42:17;95440.22;;;18.56;100.00
10097;BME280;5087;42.662;23.466;2023-05-25T06:44:52;95459.81;;;18.55;100.00
10097;BME280;5087;42.662;23.466;2023-05-25T06:47:19;95456.69;;;19.03;100.00
10097;BME280;5087;42.662;23.466;2023-05-25T06:49:50;95463.22;;;19.78;100.00
10097;BME280;5087;42.662;23.466;2023-05-25T06:52:17;95455.13;;;20.23;100.00
10097;BME280;5087;42.662;23.466;2023-05-25T06:55:01;95415.50;;;20.39;100.00
10097;BME280;5087;42.662;23.466;2023-05-25T07:00:28;95414.16;;;19.23;100.00
10097;BME280;5087;42.662;23.466;2023-05-25T07:03:07;95455.00;;;19.48;100.00
10097;BME280;5087;42.662;23.466;2023-05-25T07:05:34;95445.13;;;19.47;100.00
10097;BME280;5087;42.662;23.466;2023-05-25T07:08:02;95458.38;;;20.33;100.00
10097;BME280;5087;42.662;23.466;2023-05-25T07:10:31;95449.31;;;19.95;100.00
10097;BME280;5087;42.662;23.466;2023-05-25T07:13:08;95441.38;;;20.68;100.00
10097;BME280;5087;42.662;23.466;2023-05-25T07:15:38;95445.88;;;21.47;100.00
10097;BME280;5087;42.662;23.466;2023-05-25T07:18:24;95408.97;;;21.77;100.00
10097;BME280;5087;42.662;23.466;2023-05-25T07:20:56;95447.63;;;21.07;100.00
10097;BME280;5087;42.662;23.466;2023-05-25T07:23:43;95458.88;;;21.39;100.00
10097;BME280;5087;42.662;23.466;2023-05-25T07:26:12;95424.84;;;21.24;100.00
10097;BME280;5087;42.662;23.466;2023-05-25T07:28:40;95448.56;;;22.13;100.00
10097;BME280;5087;42.662;23.466;2023-05-25T07:31:24;95432.81;;;22.21;100.00
10097;BME280;5087;42.662;23.466;2023-05-25T07:33:53;95454.41;;;21.83;100.00
10097;BME280;5087;42.662;23.466;2023-05-25T07:36:29;95418.94;;;20.29;100.00
10097;BME280;5087;42.662;23.466;2023-05-25T07:38:57;95443.78;;;19.95;100.00
10097;BME280;5087;42.662;23.466;2023-05-25T07:41:27;95446.81;;;19.55;100.00
10097;BME280;5087;42.662;23.466;2023-05-25T07:43:55;95459.16;;;18.61;100.00
10097;BME280;5087;42.662;23.466;2023-05-25T07:46:22;95462.09;;;18.95;100.00
10097;BME280;5087;42.662;23.466;2023-05-25T07:48:50;95469.66;;;18.79;100.00
10097;BME280;5087;42.662;23.466;2023-05-25T07:51:19;95459.41;;;18.10;100.00
10097;BME280;5087;42.662;23.466;2023-05-25T07:53:54;95484.72;;;17.99;100.00
10097;BME280;5087;42.662;23.466;2023-05-25T07:56:23;95486.13;;;17.93;100.00
10097;BME280;5087;42.662;23.466;2023-05-25T07:59:01;95494.44;;;17.77;100.00
10097;BME280;5087;42.662;23.466;2023-05-25T08:01:29;95501.72;;;17.50;100.00
10097;BME280;5087;42.662;23.466;2023-05-25T08:03:57;95507.63;;;17.52;100.00
10097;BME280;5087;42.662;23.466;2023-05-25T08:06:28;95505.63;;;17.33;100.00
10097;BME280;5087;42.662;23.466;2023-05-25T08:09:11;95507.63;;;17.00;100.00
10097;BME280;5087;42.662;23.466;2023-05-25T08:11:45;95456.56;;;16.80;100.00
10097;BME280;5087;42.662;23.466;2023-05-25T08:14:15;95510.41;;;16.72;100.00
10097;BME280;5087;42.662;23.466;2023-05-25T08:16:42;95499.28;;;16.49;100.00
10097;BME280;5087;42.662;23.466;2023-05-25T08:19:13;95507.34;;;16.29;100.00
10097;BME280;5087;42.662;23.466;2023-05-25T08:21:55;95508.75;;;16.23;100.00
10097;BME280;5087;42.662;23.466;2023-05-25T08:24:23;95515.44;;;16.09;100.00
10097;BME280;5087;42.662;23.466;2023-05-25T08:26:50;95512.31;;;15.82;100.00
10097;BME280;5087;42.662;23.466;2023-05-25T08:29:22;95517.13;;;15.86;100.00
10097;BME280;5087;42.662;23.466;2023-05-25T08:31:49;95511.91;;;15.68;100.00
10097;BME280;5087;42.662;23.466;2023-05-25T08:34:17;95529.69;;;15.74;100.00
10097;BME280;5087;42.662;23.466;2023-05-25T08:36:45;95529.56;;;15.83;100.00
10097;BME280;5087;42.662;23.466;2023-05-25T08:39:23;95546.44;;;15.73;100.00
10097;BME280;5087;42.662;23.466;2023-05-25T08:42:00;95512.09;;;15.22;100.00
10097;BME280;5087;42.662;23.466;2023-05-25T08:44:30;95546.84;;;15.22;100.00
10097;BME280;5087;42.662;23.466;2023-05-25T08:47:04;95535.47;;;15.07;100.00
10097;BME280;5087;42.662;23.466;2023-05-25T08:49:50;95532.38;;;14.96;100.00
10097;BME280;5087;42.662;23.466;2023-05-25T08:52:44;95557.44;;;14.98;100.00
10097;BME280;5087;42.662;23.466;2023-05-25T09:04:11;95578.69;;;14.68;100.00
10097;BME280;5087;42.662;23.466;2023-05-25T09:06:39;95579.38;;;14.77;100.00
10097;BME280;5087;42.662;23.466;2023-05-25T09:09:07;95525.56;;;14.44;100.00
10097;BME280;5087;42.662;23.466;2023-05-25T09:11:39;95555.94;;;14.76;100.00
10097;BME280;5087;42.662;23.466;2023-05-25T09:14:10;95542.06;;;14.81;100.00
10097;BME280;5087;42.662;23.466;2023-05-25T09:16:39;95524.06;;;14.80;100.00
10097;BME280;5087;42.662;23.466;2023-05-25T09:19:11;95575.47;;;15.24;100.00
10097;BME280;5087;42.662;23.466;2023-05-25T09:21:39;95536.50;;;15.15;100.00
10097;BME280;5087;42.662;23.466;2023-05-25T09:24:08;95523.72;;;15.07;100.00
10097;BME280;5087;42.662;23.466;2023-05-25T09:26:36;95580.78;;;15.70;100.00
10097;BME280;5087;42.662;23.466;2023-05-25T09:29:04;95568.38;;;15.60;100.00
10097;BME280;5087;42.662;23.466;2023-05-25T09:31:33;95490.72;;;15.52;100.00
10097;BME280;5087;42.662;23.466;2023-05-25T09:34:01;95523.63;;;15.81;100.00
10097;BME280;5087;42.662;23.466;2023-05-25T09:36:39;95575.69;;;16.09;100.00
10097;BME280;5087;42.662;23.466;2023-05-25T09:39:11;95540.28;;;16.17;100.00
10097;BME280;5087;42.662;23.466;2023-05-25T09:41:40;95514.91;;;16.04;100.00
10097;BME280;5087;42.662;23.466;2023-05-25T09:44:08;95520.09;;;15.80;100.00
10097;BME280;5087;42.662;23.466;2023-05-25T09:46:35;95540.94;;;15.97;100.00
10097;BME280;5087;42.662;23.466;2023-05-25T09:49:05;95520.06;;;15.93;100.00
10097;BME280;5087;42.662;23.466;2023-05-25T09:51:37;95555.38;;;16.10;100.00
10097;BME280;5087;42.662;23.466;2023-05-25T09:54:09;95522.72;;;16.18;100.00
10097;BME280;5087;42.662;23.466;2023-05-25T09:56:40;95501.44;;;16.27;100.00
10097;BME280;5087;42.662;23.466;2023-05-25T09:59:08;95544.53;;;16.74;100.00
10097;BME280;5087;42.662;23.466;2023-05-25T10:01:35;95533.06;;;16.85;100.00
10097;BME280;5087;42.662;23.466;2023-05-25T10:04:03;95527.59;;;16.85;100.00
10097;BME280;5087;42.662;23.466;2023-05-25T10:06:46;95510.63;;;16.95;100.00
10097;BME280;5087;42.662;23.466;2023-05-25T10:09:18;95489.31;;;17.04;100.00
10097;BME280;5087;42.662;23.466;2023-05-25T10:11:45;95479.66;;;16.78;100.00
10097;BME280;5087;42.662;23.466;2023-05-25T10:14:20;95450.38;;;16.83;100.00
10097;BME280;5087;42.662;23.466;2023-05-25T10:16:58;95489.97;;;17.33;100.00
10097;BME280;5087;42.662;23.466;2023-05-25T10:19:39;95496.75;;;17.39;100.00
10097;BME280;5087;42.662;23.466;2023-05-25T10:22:17;95436.09;;;17.25;100.00
10097;BME280;5087;42.662;23.466;2023-05-25T10:25:03;95482.09;;;17.87;100.00
10097;BME280;5087;42.662;23.466;2023-05-25T10:27:38;95469.94;;;17.88;100.00
10097;BME280;5087;42.662;23.466;2023-05-25T10:30:15;95442.47;;;17.68;100.00
10097;BME280;5087;42.662;23.466;2023-05-25T10:32:46;95439.69;;;17.84;100.00
10097;BME280;5087;42.662;23.466;2023-05-25T10:35:33;95474.16;;;18.01;100.00
10097;BME280;5087;42.662;23.466;2023-05-25T10:38:07;95462.66;;;18.15;100.00
10097;BME280;5087;42.662;23.466;2023-05-25T10:40:37;95483.50;;;18.40;100.00
10097;BME280;5087;42.662;23.466;2023-05-25T10:43:11;95457.38;;;18.07;100.00
10097;BME280;5087;42.662;23.466;2023-05-25T10:45:39;95458.38;;;18.18;100.00
10097;BME280;5087;42.662;23.466;2023-05-25T10:48:08;95454.28;;;18.08;100.00
10097;BME280;5087;42.662;23.466;2023-05-25T10:50:39;95478.13;;;17.84;100.00
10097;BME280;5087;42.662;23.466;2023-05-25T10:53:29;95444.09;;;18.09;100.00
10097;BME280;5087;42.662;23.466;2023-05-25T10:56:01;95422.94;;;18.13;100.00
10097;BME280;5087;42.662;23.466;2023-05-25T10:58:29;95465.47;;;18.19;100.00
10097;BME280;5087;42.662;23.466;2023-05-25T11:01:10;95460.97;;;17.91;100.00
10097;BME280;5087;42.662;23.466;2023-05-25T11:03:55;95458.53;;;18.06;100.00
10097;BME280;5087;42.662;23.466;2023-05-25T11:07:04;95407.22;;;18.56;100.00
10097;BME280;5087;42.662;23.466;2023-05-25T11:09:56;95431.66;;;19.11;100.00
10097;BME280;5087;42.662;23.466;2023-05-25T11:12:26;95398.88;;;18.99;100.00
10097;BME280;5087;42.662;23.466;2023-05-25T11:15:14;95388.69;;;18.76;100.00
10097;BME280;5087;42.662;23.466;2023-05-25T11:17:56;95409.28;;;19.13;100.00
10097;BME280;5087;42.662;23.466;2023-05-25T11:20:38;95421.75;;;19.34;100.00
10097;BME280;5087;42.662;23.466;2023-05-25T11:23:21;95405.47;;;18.94;100.00
10097;BME280;5087;42.662;23.466;2023-05-25T11:26:03;95398.75;;;19.19;100.00
10097;BME280;5087;42.662;23.466;2023-05-25T11:28:44;95416.00;;;19.16;100.00
10097;BME280;5087;42.662;23.466;2023-05-25T11:31:19;95419.38;;;19.97;100.00
10097;BME280;5087;42.662;23.466;2023-05-25T11:33:49;95413.53;;;20.39;100.00
10097;BME280;5087;42.662;23.466;2023-05-25T11:36:31;95422.16;;;19.97;100.00
10097;BME280;5087;42.662;23.466;2023-05-25T11:39:12;95420.94;;;20.73;100.00
10097;BME280;5087;42.662;23.466;2023-05-25T11:42:01;95410.72;;;20.32;100.00
10097;BME280;5087;42.662;23.466;2023-05-25T11:44:34;95410.97;;;20.16;100.00
10097;BME280;5087;42.662;23.466;2023-05-25T11:47:05;95405.72;;;20.45;100.00
10097;BME280;5087;42.662;23.466;2023-05-25T11:49:38;95408.09;;;20.50;100.00
10097;BME280;5087;42.662;23.466;2023-05-25T11:52:16;95419.19;;;20.58;100.00
10097;BME280;5087;42.662;23.466;2023-05-25T11:54:44;95386.41;;;20.90;100.00
10097;BME280;5087;42.662;23.466;2023-05-25T11:57:18;95379.44;;;21.11;100.00
10097;BME280;5087;42.662;23.466;2023-05-25T12:00:05;95376.44;;;20.75;100.00
10097;BME280;5087;42.662;23.466;2023-05-25T12:02:41;95403.22;;;20.74;100.00
10097;BME280;5087;42.662;23.466;2023-05-25T12:05:09;95388.63;;;20.74;100.00
10097;BME280;5087;42.662;23.466;2023-05-25T12:07:43;95392.69;;;20.91;100.00
10097;BME280;5087;42.662;23.466;2023-05-25T12:10:20;95382.72;;;20.75;100.00
10097;BME280;5087;42.662;23.466;2023-05-25T12:13:05;95379.25;;;20.82;100.00
10097;BME280;5087;42.662;23.466;2023-05-25T12:15:40;95368.38;;;21.07;100.00
10097;BME280;5087;42.662;23.466;2023-05-25T12:18:12;95358.75;;;20.83;100.00
10097;BME280;5087;42.662;23.466;2023-05-25T12:21:11;95373.69;;;21.45;100.00
10097;BME280;5087;42.662;23.466;2023-05-25T12:23:44;95382.94;;;21.92;100.00
10097;BME280;5087;42.662;23.466;2023-05-25T12:26:16;95375.50;;;22.14;100.00
10097;BME280;5087;42.662;23.466;2023-05-25T12:29:14;95366.47;;;22.36;100.00
10097;BME280;5087;42.662;23.466;2023-05-25T12:31:46;95334.78;;;21.97;100.00
10097;BME280;5087;42.662;23.466;2023-05-25T12:34:18;95365.22;;;22.04;100.00
10097;BME280;5087;42.662;23.466;2023-05-25T12:36:49;95351.38;;;22.01;100.00
10097;BME280;5087;42.662;23.466;2023-05-25T12:39:35;95327.75;;;22.25;100.00
10097;BME280;5087;42.662;23.466;2023-05-25T12:42:04;95335.66;;;22.66;100.00
10097;BME280;5087;42.662;23.466;2023-05-25T12:44:42;95329.28;;;23.02;100.00
10097;BME280;5087;42.662;23.466;2023-05-25T12:47:26;95304.78;;;23.89;100.00
10097;BME280;5087;42.662;23.466;2023-05-25T12:50:11;95340.16;;;23.70;100.00
10097;BME280;5087;42.662;23.466;2023-05-25T12:52:46;95339.94;;;23.25;96.65
10097;BME280;5087;42.662;23.466;2023-05-25T12:55:23;95299.69;;;22.59;100.00
10097;BME280;5087;42.662;23.466;2023-05-25T12:57:59;95309.97;;;22.62;100.00
10097;BME280;5087;42.662;23.466;2023-05-25T13:00:36;95331.69;;;22.31;100.00
10097;BME280;5087;42.662;23.466;2023-05-25T13:03:04;95307.09;;;23.09;100.00
10097;BME280;5087;42.662;23.466;2023-05-25T13:05:38;95312.31;;;22.82;100.00
10097;BME280;5087;42.662;23.466;2023-05-25T13:08:06;95306.59;;;23.50;100.00
10097;BME280;5087;42.662;23.466;2023-05-25T13:10:37;95260.97;;;22.23;100.00
10097;BME280;5087;42.662;23.466;2023-05-25T13:13:04;95275.97;;;22.80;99.99
10097;BME280;5087;42.662;23.466;2023-05-25T13:15:48;95266.91;;;22.36;100.00
10097;BME280;5087;42.662;23.466;2023-05-25T13:18:16;95285.69;;;23.35;100.00
10097;BME280;5087;42.662;23.466;2023-05-25T13:20:49;95288.53;;;23.98;100.00
10097;BME280;5087;42.662;23.466;2023-05-25T13:23:16;95276.97;;;23.36;93.17
10097;BME280;5087;42.662;23.466;2023-05-25T13:25:45;95271.50;;;23.22;89.02
10097;BME280;5087;42.662;23.466;2023-05-25T13:28:18;95299.84;;;23.59;89.29
10097;BME280;5087;42.662;23.466;2023-05-25T13:30:48;95283.19;;;23.62;95.83
10097;BME280;5087;42.662;23.466;2023-05-25T13:33:24;95267.78;;;24.17;85.58
10097;BME280;5087;42.662;23.466;2023-05-25T13:35:51;95297.38;;;23.71;89.54
10097;BME280;5087;42.662;23.466;2023-05-25T13:38:38;95288.47;;;24.06;86.08
10097;BME280;5087;42.662;23.466;2023-05-25T13:41:10;95294.47;;;24.00;74.86